sensor_id;sensor_type;location;lat;lon;timestamp;pressure;altitude;pressure_sealevel;temperature;humidity
24440;BME280;12618;54.386;18.394;2023-04-01T00:01:26;97903.31;;;6.56;100.00
24440;BME280;12618;54.386;18.394;2023-04-01T00:03:57;97908.61;;;6.52;100.00
24440;BME280;12618;54.386;18.394;2023-04-01T00:06:30;97908.63;;;6.47;100.00
24440;BME280;12618;54.386;18.394;2023-04-01T00:09:02;97907.91;;;6.44;100.00
24440;BME280;12618;54.386;18.394;2023-04-01T00:11:35;97906.11;;;6.39;100.00
24440;BME280;12618;54.386;18.394;2023-04-01T00:14:07;97907.52;;;6.36;100.00
24440;BME280;12618;54.386;18.394;2023-04-01T00:16:39;97905.94;;;6.33;100.00
24440;BME280;12618;54.386;18.394;2023-04-01T00:19:11;97907.12;;;6.28;100.00
24440;BME280;12618;54.386;18.394;2023-04-01T00:21:42;97908.71;;;6.22;100.00
24440;BME280;12618;54.386;18.394;2023-04-01T00:24:14;97905.61;;;6.18;100.00
24440;BME280;12618;54.386;18.394;2023-04-01T00:26:46;97903.36;;;6.18;100.00
24440;BME280;12618;54.386;18.394;2023-04-01T00:29:18;97906.55;;;6.15;100.00
24440;BME280;12618;54.386;18.394;2023-04-01T00:31:50;97906.30;;;6.07;100.00
24440;BME280;12618;54.386;18.394;2023-04-01T00:34:22;97909.49;;;6.03;100.00
24440;BME280;12618;54.386;18.394;2023-04-01T00:36:55;97912.24;;;6.01;100.00
24440;BME280;12618;54.386;18.394;2023-04-01T00:39:29;97910.68;;;5.94;100.00
24440;BME280;12618;54.386;18.394;2023-04-01T00:42:02;97919.00;;;5.83;100.00
24440;BME280;12618;54.386;18.394;2023-04-01T00:44:38;97920.78;;;5.73;100.00
24440;BME280;12618;54.386;18.394;2023-04-01T00:47:10;97920.80;;;5.67;100.00
24440;BME280;12618;54.386;18.394;2023-04-01T00:49:44;97917.42;;;5.62;100.00
24440;BME280;12618;54.386;18.394;2023-04-01T00:52:21;97920.19;;;5.56;100.00
24440;BME280;12618;54.386;18.394;2023-04-01T00:54:57;97917.98;;;5.55;100.00
24440;BME280;12618;54.386;18.394;2023-04-01T00:57:35;97917.54;;;5.53;100.00
24440;BME280;12618;54.386;18.394;2023-04-01T01:00:10;97918.26;;;5.47;100.00
24440;BME280;12618;54.386;18.394;2023-04-01T01:02:45;97912.61;;;5.45;100.00
24440;BME280;12618;54.386;18.394;2023-04-01T01:05:22;97914.55;;;5.44;100.00
24440;BME280;12618;54.386;18.394;2023-04-01T01:08:13;97912.41;;;5.39;100.00
24440;BME280;12618;54.386;18.394;2023-04-01T01:10:49;97914.76;;;5.35;100.00
24440;BME280;12618;54.386;18.394;2023-04-01T01:16:26;97909.33;;;5.39;100.00
24440;BME280;12618;54.386;18.394;2023-04-01T01:25:32;97916.48;;;5.13;100.00
24440;BME280;12618;54.386;18.394;2023-04-01T01:31:17;97925.77;;;5.03;100.00
24440;BME280;12618;54.386;18.394;2023-04-01T01:37:02;97924.95;;;4.95;100.00
24440;BME280;12618;54.386;18.394;2023-04-01T01:39:35;97927.67;;;4.93;100.00
24440;BME280;12618;54.386;18.394;2023-04-01T01:42:09;97927.88;;;4.93;100.00
24440;BME280;12618;54.386;18.394;2023-04-01T01:44:44;97930.03;;;4.91;100.00
24440;BME280;12618;54.386;18.394;2023-04-01T01:47:19;97931.09;;;4.88;100.00
24440;BME280;12618;54.386;18.394;2023-04-01T01:49:53;97930.17;;;4.86;100.00
24440;BME280;12618;54.386;18.394;2023-04-01T01:52:27;97932.43;;;4.83;100.00
24440;BME280;12618;54.386;18.394;2023-04-01T01:55:02;97930.42;;;4.77;100.00
24440;BME280;12618;54.386;18.394;2023-04-01T01:57:37;97934.96;;;4.74;100.00
24440;BME280;12618;54.386;18.394;2023-04-01T02:00:11;97933.02;;;4.68;100.00
24440;BME280;12618;54.386;18.394;2023-04-01T02:02:47;97935.45;;;4.62;100.00
24440;BME280;12618;54.386;18.394;2023-04-01T02:05:23;97939.08;;;4.52;100.00
24440;BME280;12618;54.386;18.394;2023-04-01T02:08:02;97943.54;;;4.47;100.00
24440;BME280;12618;54.386;18.394;2023-04-01T02:10:40;97943.64;;;4.45;100.00
24440;BME280;12618;54.386;18.394;2023-04-01T02:13:49;97940.39;;;4.41;100.00
24440;BME280;12618;54.386;18.394;2023-04-01T02:16:23;97945.95;;;4.33;100.00
24440;BME280;12618;54.386;18.394;2023-04-01T02:18:59;97945.36;;;4.25;100.00
24440;BME280;12618;54.386;18.394;2023-04-01T02:21:32;97946.42;;;4.18;100.00
24440;BME280;12618;54.386;18.394;2023-04-01T02:24:09;97943.39;;;4.16;100.00
24440;BME280;12618;54.386;18.394;2023-04-01T02:26:42;97948.20;;;4.20;100.00
24440;BME280;12618;54.386;18.394;2023-04-01T02:29:16;97945.02;;;4.21;100.00
24440;BME280;12618;54.386;18.394;2023-04-01T02:31:50;97950.44;;;4.18;100.00
24440;BME280;12618;54.386;18.394;2023-04-01T02:34:24;97952.23;;;4.13;100.00
24440;BME280;12618;54.386;18.394;2023-04-01T02:36:57;97949.88;;;4.11;100.00
24440;BME280;12618;54.386;18.394;2023-04-01T02:39:29;97948.64;;;4.11;100.00
24440;BME280;12618;54.386;18.394;2023-04-01T02:42:01;97952.31;;;4.11;100.00
24440;BME280;12618;54.386;18.394;2023-04-01T02:44:32;97952.00;;;4.10;100.00
24440;BME280;12618;54.386;18.394;2023-04-01T02:47:04;97951.10;;;4.08;100.00
24440;BME280;12618;54.386;18.394;2023-04-01T02:49:36;97955.86;;;4.10;100.00
24440;BME280;12618;54.386;18.394;2023-04-01T02:52:08;97956.80;;;4.12;100.00
24440;BME280;12618;54.386;18.394;2023-04-01T02:54:40;97965.27;;;4.13;100.00
24440;BME280;12618;54.386;18.394;2023-04-01T02:57:12;97967.30;;;4.14;100.00
24440;BME280;12618;54.386;18.394;2023-04-01T02:59:44;97966.93;;;4.11;100.00
24440;BME280;12618;54.386;18.394;2023-04-01T03:02:16;97970.23;;;4.11;100.00
24440;BME280;12618;54.386;18.394;2023-04-01T03:04:48;97973.81;;;4.13;100.00
24440;BME280;12618;54.386;18.394;2023-04-01T03:07:20;97972.95;;;4.09;100.00
24440;BME280;12618;54.386;18.394;2023-04-01T03:09:51;97976.40;;;4.06;100.00
24440;BME280;12618;54.386;18.394;2023-04-01T03:12:23;97978.86;;;4.06;100.00
24440;BME280;12618;54.386;18.394;2023-04-01T03:14:55;97982.02;;;4.05;100.00
24440;BME280;12618;54.386;18.394;2023-04-01T03:17:42;97983.29;;;4.04;100.00
24440;BME280;12618;54.386;18.394;2023-04-01T03:20:14;97982.02;;;4.06;100.00
24440;BME280;12618;54.386;18.394;2023-04-01T03:22:46;97981.90;;;4.08;100.00
24440;BME280;12618;54.386;18.394;2023-04-01T03:25:18;97986.96;;;4.11;100.00
24440;BME280;12618;54.386;18.394;2023-04-01T03:27:50;97987.30;;;4.11;100.00
24440;BME280;12618;54.386;18.394;2023-04-01T03:30:22;97987.50;;;4.10;100.00
24440;BME280;12618;54.386;18.394;2023-04-01T03:32:53;97987.99;;;4.11;100.00
24440;BME280;12618;54.386;18.394;2023-04-01T03:35:26;97985.39;;;4.11;100.00
24440;BME280;12618;54.386;18.394;2023-04-01T03:37:58;97990.70;;;4.09;100.00
24440;BME280;12618;54.386;18.394;2023-04-01T03:40:30;97989.73;;;4.11;100.00
24440;BME280;12618;54.386;18.394;2023-04-01T03:43:01;97993.94;;;4.10;100.00
24440;BME280;12618;54.386;18.394;2023-04-01T03:45:33;97997.19;;;4.12;100.00
24440;BME280;12618;54.386;18.394;2023-04-01T03:48:05;97999.98;;;4.15;100.00
24440;BME280;12618;54.386;18.394;2023-04-01T03:50:37;97997.32;;;4.16;100.00
24440;BME280;12618;54.386;18.394;2023-04-01T03:53:08;98000.21;;;4.17;100.00
24440;BME280;12618;54.386;18.394;2023-04-01T03:55:40;97999.33;;;4.21;100.00
24440;BME280;12618;54.386;18.394;2023-04-01T03:58:12;97994.65;;;4.24;100.00
24440;BME280;12618;54.386;18.394;2023-04-01T04:00:44;98001.21;;;4.25;100.00
24440;BME280;12618;54.386;18.394;2023-04-01T04:03:16;98002.21;;;4.26;100.00
24440;BME280;12618;54.386;18.394;2023-04-01T04:05:49;98005.75;;;4.25;100.00
24440;BME280;12618;54.386;18.394;2023-04-01T04:08:20;98007.90;;;4.24;100.00
24440;BME280;12618;54.386;18.394;2023-04-01T04:10:55;98013.12;;;4.24;100.00
24440;BME280;12618;54.386;18.394;2023-04-01T04:13:27;98013.88;;;4.26;100.00
24440;BME280;12618;54.386;18.394;2023-04-01T04:15:59;98017.14;;;4.30;100.00
24440;BME280;12618;54.386;18.394;2023-04-01T04:18:31;98019.70;;;4.31;100.00
24440;BME280;12618;54.386;18.394;2023-04-01T04:21:03;98019.12;;;4.29;100.00
24440;BME280;12618;54.386;18.394;2023-04-01T04:23:35;98019.98;;;4.30;100.00
24440;BME280;12618;54.386;18.394;2023-04-01T04:26:11;98017.01;;;4.33;100.00
24440;BME280;12618;54.386;18.394;2023-04-01T04:28:42;98016.25;;;4.38;100.00
24440;BME280;12618;54.386;18.394;2023-04-01T04:31:21;98015.83;;;4.39;100.00
24440;BME280;12618;54.386;18.394;2023-04-01T04:33:54;98017.34;;;4.41;100.00
24440;BME280;12618;54.386;18.394;2023-04-01T04:36:26;98019.79;;;4.40;100.00
24440;BME280;12618;54.386;18.394;2023-04-01T04:38:58;98019.48;;;4.40;100.00
24440;BME280;12618;54.386;18.394;2023-04-01T04:41:33;98020.92;;;4.38;100.00
24440;BME280;12618;54.386;18.394;2023-04-01T04:44:08;98019.45;;;4.41;100.00
24440;BME280;12618;54.386;18.394;2023-04-01T04:46:39;98022.52;;;4.42;100.00
24440;BME280;12618;54.386;18.394;2023-04-01T04:49:11;98027.98;;;4.43;100.00
24440;BME280;12618;54.386;18.394;2023-04-01T04:51:43;98026.76;;;4.41;100.00
24440;BME280;12618;54.386;18.394;2023-04-01T04:54:15;98022.16;;;4.42;100.00
24440;BME280;12618;54.386;18.394;2023-04-01T04:56:46;98025.89;;;4.44;100.00
24440;BME280;12618;54.386;18.394;2023-04-01T04:59:18;98023.54;;;4.42;100.00
24440;BME280;12618;54.386;18.394;2023-04-01T05:01:50;98023.96;;;4.44;100.00
24440;BME280;12618;54.386;18.394;2023-04-01T05:04:22;98025.58;;;4.46;100.00
24440;BME280;12618;54.386;18.394;2023-04-01T05:06:53;98029.94;;;4.46;100.00
24440;BME280;12618;54.386;18.394;2023-04-01T05:09:25;98030.55;;;4.45;100.00
24440;BME280;12618;54.386;18.394;2023-04-01T05:11:56;98033.54;;;4.44;100.00
24440;BME280;12618;54.386;18.394;2023-04-01T05:14:28;98035.09;;;4.44;100.00
24440;BME280;12618;54.386;18.394;2023-04-01T05:17:00;98034.86;;;4.46;100.00
24440;BME280;12618;54.386;18.394;2023-04-01T05:19:31;98037.73;;;4.47;100.00
24440;BME280;12618;54.386;18.394;2023-04-01T05:22:04;98040.82;;;4.48;100.00
24440;BME280;12618;54.386;18.394;2023-04-01T05:24:35;98038.42;;;4.44;100.00
24440;BME280;12618;54.386;18.394;2023-04-01T05:27:07;98044.70;;;4.43;100.00
24440;BME280;12618;54.386;18.394;2023-04-01T05:29:38;98044.20;;;4.47;100.00
24440;BME280;12618;54.386;18.394;2023-04-01T05:32:10;98050.82;;;4.50;100.00
24440;BME280;12618;54.386;18.394;2023-04-01T05:34:42;98052.05;;;4.50;100.00
24440;BME280;12618;54.386;18.394;2023-04-01T05:37:13;98048.09;;;4.46;100.00
24440;BME280;12618;54.386;18.394;2023-04-01T05:39:45;98057.77;;;4.44;100.00
24440;BME280;12618;54.386;18.394;2023-04-01T05:42:17;98059.06;;;4.38;100.00
24440;BME280;12618;54.386;18.394;2023-04-01T05:44:48;98054.79;;;4.36;100.00
24440;BME280;12618;54.386;18.394;2023-04-01T05:47:20;98056.55;;;4.36;100.00
24440;BME280;12618;54.386;18.394;2023-04-01T05:49:51;98057.92;;;4.37;100.00
24440;BME280;12618;54.386;18.394;2023-04-01T05:52:23;98061.79;;;4.35;100.00
24440;BME280;12618;54.386;18.394;2023-04-01T05:54:55;98068.61;;;4.32;100.00
24440;BME280;12618;54.386;18.394;2023-04-01T05:57:27;98066.22;;;4.27;100.00
24440;BME280;12618;54.386;18.394;2023-04-01T05:59:58;98069.75;;;4.26;100.00
24440;BME280;12618;54.386;18.394;2023-04-01T06:02:30;98072.29;;;4.24;100.00
24440;BME280;12618;54.386;18.394;2023-04-01T06:05:22;98079.20;;;4.21;100.00
24440;BME280;12618;54.386;18.394;2023-04-01T06:07:59;98085.46;;;4.18;100.00
24440;BME280;12618;54.386;18.394;2023-04-01T06:17:12;98093.39;;;4.16;100.00
24440;BME280;12618;54.386;18.394;2023-04-01T06:50:55;98126.33;;;4.22;100.00
24440;BME280;12618;54.386;18.394;2023-04-01T06:53:46;98127.02;;;4.26;100.00
24440;BME280;12618;54.386;18.394;2023-04-01T06:56:25;98132.07;;;4.26;100.00
24440;BME280;12618;54.386;18.394;2023-04-01T06:59:05;98136.77;;;4.22;100.00
24440;BME280;12618;54.386;18.394;2023-04-01T07:01:42;98140.85;;;4.17;100.00
24440;BME280;12618;54.386;18.394;2023-04-01T07:04:32;98145.92;;;4.13;100.00
24440;BME280;12618;54.386;18.394;2023-04-01T07:07:14;98145.42;;;4.09;100.00
24440;BME280;12618;54.386;18.394;2023-04-01T07:09:52;98150.63;;;4.09;100.00
24440;BME280;12618;54.386;18.394;2023-04-01T07:12:36;98155.33;;;4.06;100.00
24440;BME280;12618;54.386;18.394;2023-04-01T07:15:22;98162.36;;;4.04;100.00
24440;BME280;12618;54.386;18.394;2023-04-01T07:18:03;98159.98;;;4.02;100.00
24440;BME280;12618;54.386;18.394;2023-04-01T07:20:38;98164.27;;;4.04;100.00
24440;BME280;12618;54.386;18.394;2023-04-01T07:23:32;98166.08;;;4.07;100.00
24440;BME280;12618;54.386;18.394;2023-04-01T07:26:24;98172.37;;;4.06;100.00
24440;BME280;12618;54.386;18.394;2023-04-01T07:28:56;98169.45;;;4.05;100.00
24440;BME280;12618;54.386;18.394;2023-04-01T07:37:06;98174.13;;;4.01;100.00
24440;BME280;12618;54.386;18.394;2023-04-01T07:45:55;98191.13;;;3.91;100.00
24440;BME280;12618;54.386;18.394;2023-04-01T07:48:38;98196.23;;;3.86;100.00
24440;BME280;12618;54.386;18.394;2023-04-01T08:00:04;98206.75;;;3.81;100.00
24440;BME280;12618;54.386;18.394;2023-04-01T08:05:41;98211.53;;;3.79;100.00
24440;BME280;12618;54.386;18.394;2023-04-01T08:08:29;98209.10;;;3.79;100.00
24440;BME280;12618;54.386;18.394;2023-04-01T08:20:07;98222.71;;;3.74;100.00
24440;BME280;12618;54.386;18.394;2023-04-01T08:22:49;98231.77;;;3.74;100.00
24440;BME280;12618;54.386;18.394;2023-04-01T08:25:26;98234.56;;;3.77;100.00
24440;BME280;12618;54.386;18.394;2023-04-01T08:28:11;98241.70;;;3.85;100.00
24440;BME280;12618;54.386;18.394;2023-04-01T08:33:46;98250.96;;;3.87;100.00
24440;BME280;12618;54.386;18.394;2023-04-01T08:36:33;98250.76;;;3.88;100.00
24440;BME280;12618;54.386;18.394;2023-04-01T08:39:13;98255.75;;;3.89;100.00
24440;BME280;12618;54.386;18.394;2023-04-01T08:53:49;98267.92;;;3.86;100.00
24440;BME280;12618;54.386;18.394;2023-04-01T08:56:50;98263.82;;;3.85;100.00
24440;BME280;12618;54.386;18.394;2023-04-01T08:59:47;98270.05;;;3.85;100.00
24440;BME280;12618;54.386;18.394;2023-04-01T09:05:46;98278.77;;;3.85;100.00
24440;BME280;12618;54.386;18.394;2023-04-01T09:08:42;98281.08;;;3.84;100.00
24440;BME280;12618;54.386;18.394;2023-04-01T09:11:34;98280.45;;;3.82;100.00
24440;BME280;12618;54.386;18.394;2023-04-01T09:39:20;98319.67;;;3.76;100.00
24440;BME280;12618;54.386;18.394;2023-04-01T09:51:49;98327.94;;;3.94;100.00
24440;BME280;12618;54.386;18.394;2023-04-01T09:54:43;98328.64;;;3.94;100.00
24440;BME280;12618;54.386;18.394;2023-04-01T09:58:02;98331.88;;;3.96;100.00
24440;BME280;12618;54.386;18.394;2023-04-01T10:16:41;98365.18;;;3.94;100.00
24440;BME280;12618;54.386;18.394;2023-04-01T10:39:37;98372.11;;;4.02;100.00
24440;BME280;12618;54.386;18.394;2023-04-01T10:42:30;98372.98;;;4.07;100.00
24440;BME280;12618;54.386;18.394;2023-04-01T10:48:13;98387.59;;;4.11;100.00
24440;BME280;12618;54.386;18.394;2023-04-01T10:53:26;98392.33;;;4.06;100.00
24440;BME280;12618;54.386;18.394;2023-04-01T10:56:31;98398.13;;;4.05;100.00
24440;BME280;12618;54.386;18.394;2023-04-01T11:16:47;98424.62;;;3.87;100.00
24440;BME280;12618;54.386;18.394;2023-04-01T11:22:51;98424.95;;;3.83;100.00
24440;BME280;12618;54.386;18.394;2023-04-01T11:31:10;98437.44;;;3.88;100.00
24440;BME280;12618;54.386;18.394;2023-04-01T11:37:08;98438.84;;;3.88;100.00
24440;BME280;12618;54.386;18.394;2023-04-01T11:43:00;98444.52;;;3.94;100.00
24440;BME280;12618;54.386;18.394;2023-04-01T11:45:36;98443.38;;;4.00;100.00
24440;BME280;12618;54.386;18.394;2023-04-01T11:54:03;98461.65;;;3.92;100.00
24440;BME280;12618;54.386;18.394;2023-04-01T12:03:17;98459.44;;;3.91;100.00
24440;BME280;12618;54.386;18.394;2023-04-01T12:12:15;98460.27;;;4.04;100.00
24440;BME280;12618;54.386;18.394;2023-04-01T12:20:33;98465.58;;;4.10;100.00
24440;BME280;12618;54.386;18.394;2023-04-01T12:37:20;98496.37;;;3.77;100.00
24440;BME280;12618;54.386;18.394;2023-04-01T12:40:06;98502.23;;;3.74;100.00
24440;BME280;12618;54.386;18.394;2023-04-01T12:45:35;98500.20;;;3.73;100.00
24440;BME280;12618;54.386;18.394;2023-04-01T13:00:03;98522.94;;;3.64;100.00
24440;BME280;12618;54.386;18.394;2023-04-01T13:06:19;98526.35;;;3.66;100.00
24440;BME280;12618;54.386;18.394;2023-04-01T13:09:07;98539.84;;;3.68;100.00
24440;BME280;12618;54.386;18.394;2023-04-01T13:23:33;98554.95;;;3.42;100.00
24440;BME280;12618;54.386;18.394;2023-04-01T13:29:14;98565.61;;;3.44;100.00
24440;BME280;12618;54.386;18.394;2023-04-01T13:31:58;98567.60;;;3.43;100.00
24440;BME280;12618;54.386;18.394;2023-04-01T13:34:56;98568.63;;;3.43;100.00
24440;BME280;12618;54.386;18.394;2023-04-01T13:37:54;98571.65;;;3.46;100.00
24440;BME280;12618;54.386;18.394;2023-04-01T13:40:54;98574.03;;;3.47;100.00
24440;BME280;12618;54.386;18.394;2023-04-01T13:43:58;98575.86;;;3.45;100.00
24440;BME280;12618;54.386;18.394;2023-04-01T14:12:26;98608.02;;;3.31;100.00
24440;BME280;12618;54.386;18.394;2023-04-01T14:20:36;98616.58;;;3.16;100.00
24440;BME280;12618;54.386;18.394;2023-04-01T14:36:58;98638.73;;;3.04;100.00
24440;BME280;12618;54.386;18.394;2023-04-01T14:48:49;98643.80;;;2.87;100.00
24440;BME280;12618;54.386;18.394;2023-04-01T14:51:29;98645.47;;;2.84;100.00
24440;BME280;12618;54.386;18.394;2023-04-01T14:54:15;98647.15;;;2.80;100.00
24440;BME280;12618;54.386;18.394;2023-04-01T14:57:25;98649.17;;;2.77;100.00
24440;BME280;12618;54.386;18.394;2023-04-01T15:02:57;98656.71;;;2.70;100.00
24440;BME280;12618;54.386;18.394;2023-04-01T15:08:29;98666.18;;;2.67;100.00
24440;BME280;12618;54.386;18.394;2023-04-01T15:13:48;98673.27;;;2.68;100.00
24440;BME280;12618;54.386;18.394;2023-04-01T15:25:17;98693.95;;;2.67;100.00
24440;BME280;12618;54.386;18.394;2023-04-01T15:30:34;98705.95;;;2.66;100.00
24440;BME280;12618;54.386;18.394;2023-04-01T15:33:20;98709.86;;;2.69;100.00
24440;BME280;12618;54.386;18.394;2023-04-01T15:39:16;98723.77;;;2.64;100.00
24440;BME280;12618;54.386;18.394;2023-04-01T15:42:09;98721.92;;;2.62;100.00
24440;BME280;12618;54.386;18.394;2023-04-01T15:44:52;98726.30;;;2.60;100.00
24440;BME280;12618;54.386;18.394;2023-04-01T15:53:15;98737.38;;;2.50;100.00
24440;BME280;12618;54.386;18.394;2023-04-01T16:04:31;98765.16;;;2.51;100.00
24440;BME280;12618;54.386;18.394;2023-04-01T16:07:26;98767.66;;;2.48;100.00
24440;BME280;12618;54.386;18.394;2023-04-01T16:10:18;98772.56;;;2.47;100.00
24440;BME280;12618;54.386;18.394;2023-04-01T16:16:10;98776.39;;;2.42;100.00
24440;BME280;12618;54.386;18.394;2023-04-01T16:21:43;98787.50;;;2.41;100.00
24440;BME280;12618;54.386;18.394;2023-04-01T16:30:38;98800.02;;;2.41;100.00
24440;BME280;12618;54.386;18.394;2023-04-01T16:36:26;98807.16;;;2.40;100.00
24440;BME280;12618;54.386;18.394;2023-04-01T16:39:12;98810.80;;;2.40;100.00
24440;BME280;12618;54.386;18.394;2023-04-01T16:47:47;98820.70;;;2.33;100.00
24440;BME280;12618;54.386;18.394;2023-04-01T16:50:30;98820.81;;;2.30;100.00
24440;BME280;12618;54.386;18.394;2023-04-01T16:58:36;98842.78;;;2.26;100.00
24440;BME280;12618;54.386;18.394;2023-04-01T17:01:18;98843.66;;;2.26;100.00
24440;BME280;12618;54.386;18.394;2023-04-01T17:04:10;98851.11;;;2.26;100.00
24440;BME280;12618;54.386;18.394;2023-04-01T17:10:25;98866.23;;;2.19;100.00
24440;BME280;12618;54.386;18.394;2023-04-01T17:13:57;98867.78;;;2.21;100.00
24440;BME280;12618;54.386;18.394;2023-04-01T17:19:20;98881.02;;;2.17;100.00
24440;BME280;12618;54.386;18.394;2023-04-01T17:25:10;98884.48;;;2.17;100.00
24440;BME280;12618;54.386;18.394;2023-04-01T17:27:54;98890.55;;;2.18;100.00
24440;BME280;12618;54.386;18.394;2023-04-01T17:30:48;98894.51;;;2.20;100.00
24440;BME280;12618;54.386;18.394;2023-04-01T17:36:54;98899.31;;;2.15;100.00
24440;BME280;12618;54.386;18.394;2023-04-01T17:42:14;98904.98;;;2.17;100.00
24440;BME280;12618;54.386;18.394;2023-04-01T18:10:32;98931.56;;;2.16;100.00
24440;BME280;12618;54.386;18.394;2023-04-01T18:21:52;98957.99;;;2.13;100.00
24440;BME280;12618;54.386;18.394;2023-04-01T18:24:35;98959.42;;;2.12;100.00
24440;BME280;12618;54.386;18.394;2023-04-01T18:27:17;98965.67;;;2.11;100.00
24440;BME280;12618;54.386;18.394;2023-04-01T18:30:28;98965.84;;;2.12;100.00
24440;BME280;12618;54.386;18.394;2023-04-01T18:36:07;98971.23;;;2.11;100.00
24440;BME280;12618;54.386;18.394;2023-04-01T18:38:48;98971.73;;;2.12;100.00
24440;BME280;12618;54.386;18.394;2023-04-01T18:50:30;98984.98;;;2.16;100.00
24440;BME280;12618;54.386;18.394;2023-04-01T18:53:16;98986.89;;;2.16;100.00
24440;BME280;12618;54.386;18.394;2023-04-01T18:55:53;98989.79;;;2.19;100.00
24440;BME280;12618;54.386;18.394;2023-04-01T18:58:35;98993.05;;;2.21;100.00
24440;BME280;12618;54.386;18.394;2023-04-01T19:01:25;98997.34;;;2.22;100.00
24440;BME280;12618;54.386;18.394;2023-04-01T19:04:15;99000.30;;;2.22;100.00
24440;BME280;12618;54.386;18.394;2023-04-01T19:06:54;98998.36;;;2.23;100.00
24440;BME280;12618;54.386;18.394;2023-04-01T19:09:47;99004.26;;;2.23;100.00
24440;BME280;12618;54.386;18.394;2023-04-01T19:12:46;99008.74;;;2.24;100.00
24440;BME280;12618;54.386;18.394;2023-04-01T19:20:57;99020.86;;;2.26;100.00
24440;BME280;12618;54.386;18.394;2023-04-01T19:26:22;99021.23;;;2.25;100.00
24440;BME280;12618;54.386;18.394;2023-04-01T19:41:11;99041.85;;;2.26;100.00
24440;BME280;12618;54.386;18.394;2023-04-01T19:49:25;99053.53;;;2.24;100.00
24440;BME280;12618;54.386;18.394;2023-04-01T19:52:20;99055.45;;;2.23;100.00
24440;BME280;12618;54.386;18.394;2023-04-01T19:58:06;99061.55;;;2.22;100.00
24440;BME280;12618;54.386;18.394;2023-04-01T20:00:52;99064.17;;;2.21;100.00
24440;BME280;12618;54.386;18.394;2023-04-01T20:03:36;99062.17;;;2.18;100.00
24440;BME280;12618;54.386;18.394;2023-04-01T20:06:25;99059.10;;;2.16;100.00
24440;BME280;12618;54.386;18.394;2023-04-01T20:14:57;99080.54;;;2.12;100.00
24440;BME280;12618;54.386;18.394;2023-04-01T20:17:38;99078.33;;;2.10;100.00
24440;BME280;12618;54.386;18.394;2023-04-01T20:25:25;99094.56;;;2.06;100.00
24440;BME280;12618;54.386;18.394;2023-04-01T20:31:00;99102.75;;;2.05;100.00
24440;BME280;12618;54.386;18.394;2023-04-01T20:36:34;99107.98;;;2.04;100.00
24440;BME280;12618;54.386;18.394;2023-04-01T20:42:32;99118.25;;;2.02;100.00
24440;BME280;12618;54.386;18.394;2023-04-01T20:45:31;99118.17;;;1.99;100.00
24440;BME280;12618;54.386;18.394;2023-04-01T20:51:03;99123.92;;;1.97;100.00
24440;BME280;12618;54.386;18.394;2023-04-01T20:57:24;99137.31;;;1.95;100.00
24440;BME280;12618;54.386;18.394;2023-04-01T21:25:46;99146.20;;;1.69;100.00
24440;BME280;12618;54.386;18.394;2023-04-01T21:28:46;99144.80;;;1.70;100.00
24440;BME280;12618;54.386;18.394;2023-04-01T21:34:40;99151.56;;;1.63;100.00
24440;BME280;12618;54.386;18.394;2023-04-01T21:51:45;99176.10;;;1.32;100.00
24440;BME280;12618;54.386;18.394;2023-04-01T21:54:49;99177.71;;;1.29;100.00
24440;BME280;12618;54.386;18.394;2023-04-01T22:03:18;99190.01;;;1.30;100.00
24440;BME280;12618;54.386;18.394;2023-04-01T22:08:44;99194.55;;;1.28;100.00
24440;BME280;12618;54.386;18.394;2023-04-01T22:16:57;99198.17;;;1.28;100.00
24440;BME280;12618;54.386;18.394;2023-04-01T22:19:35;99200.23;;;1.29;100.00
24440;BME280;12618;54.386;18.394;2023-04-01T22:22:13;99202.61;;;1.32;100.00
24440;BME280;12618;54.386;18.394;2023-04-01T22:27:52;99205.69;;;1.33;100.00
24440;BME280;12618;54.386;18.394;2023-04-01T22:30:31;99213.66;;;1.33;100.00
24440;BME280;12618;54.386;18.394;2023-04-01T22:33:28;99219.38;;;1.33;100.00
24440;BME280;12618;54.386;18.394;2023-04-01T22:36:31;99222.48;;;1.34;100.00
24440;BME280;12618;54.386;18.394;2023-04-01T22:42:07;99230.19;;;1.31;100.00
24440;BME280;12618;54.386;18.394;2023-04-01T22:44:51;99227.95;;;1.30;100.00
24440;BME280;12618;54.386;18.394;2023-04-01T22:47:29;99233.84;;;1.30;100.00
24440;BME280;12618;54.386;18.394;2023-04-01T22:50:25;99238.36;;;1.30;100.00
24440;BME280;12618;54.386;18.394;2023-04-01T22:53:13;99243.62;;;1.26;100.00
24440;BME280;12618;54.386;18.394;2023-04-01T22:55:50;99247.50;;;1.22;100.00
24440;BME280;12618;54.386;18.394;2023-04-01T22:58:33;99243.42;;;1.18;100.00
24440;BME280;12618;54.386;18.394;2023-04-01T23:01:19;99242.81;;;1.12;100.00
24440;BME280;12618;54.386;18.394;2023-04-01T23:03:53;99246.71;;;1.08;100.00
24440;BME280;12618;54.386;18.394;2023-04-01T23:06:33;99244.16;;;1.05;100.00
24440;BME280;12618;54.386;18.394;2023-04-01T23:09:30;99252.33;;;1.03;100.00
24440;BME280;12618;54.386;18.394;2023-04-01T23:12:07;99255.15;;;1.00;100.00
24440;BME280;12618;54.386;18.394;2023-04-01T23:14:54;99256.94;;;0.97;100.00
24440;BME280;12618;54.386;18.394;2023-04-01T23:18:12;99263.89;;;0.96;100.00
24440;BME280;12618;54.386;18.394;2023-04-01T23:20:54;99265.19;;;0.91;100.00
24440;BME280;12618;54.386;18.394;2023-04-01T23:26:49;99269.97;;;0.85;100.00
24440;BME280;12618;54.386;18.394;2023-04-01T23:29:23;99267.75;;;0.82;100.00
24440;BME280;12618;54.386;18.394;2023-04-01T23:32:01;99271.58;;;0.80;100.00
24440;BME280;12618;54.386;18.394;2023-04-01T23:34:34;99276.08;;;0.81;100.00
24440;BME280;12618;54.386;18.394;2023-04-01T23:37:10;99273.66;;;0.80;100.00
24440;BME280;12618;54.386;18.394;2023-04-01T23:39:56;99276.95;;;0.79;100.00
24440;BME280;12618;54.386;18.394;2023-04-01T23:45:13;99269.36;;;0.78;100.00